Kellersville, North Carolina
Current Conditions -  °F | °C
As of 5:15 AM on Tuesday 21 Oct 2014 (Local Time) from KTNB Reporting Station
Clear Clear  
Wind Chill: 45°   Ceiling: Unl
Heat Index: 49°   Visibility: 10mi
Dew Point: 43°   Wind: 7mph
Humidity: 80%   Direction: 300°WNW
Pressure: 29.98"   Gusts: NA
Location:  36.1797°N, 81.8424°W
Report Text: KTNB 210915Z AUTO 30006KT 10SM CLR 09/06 A2998 RMK AO2 T00920060
Loading
Personal Weather Stations






























Interactive Weather Map
Tropical Storm Tracking
New forecast layout! Learn more

10-Day Weather Forecast

Advertisements
Track Severe Weather on mobile